Time;durP1;ratioP1;P1;durP2;ratioP2;P2;SDS_P1;SDS_P2;PMS_P1;PMS_P2;Temp;Humidity;BMP_temperature;BMP_pressure;BME280_temperature;BME280_humidity;BME280_pressure;Samples;Min_cycle;Max_cycle;Signal;HPM_P1;HPM_P2
2023/01/08 00:01:51;;;;;;;26.05;16.05;;;;;;;3.82;58.46;101836.13;5038576;28;20397;-74
2023/01/08 00:04:19;;;;;;;25.07;14.70;;;;;;;3.75;58.69;101847.13;5039147;28;20396;-72
2023/01/08 00:06:45;;;;;;;26.08;15.60;;;;;;;3.58;59.19;101841.16;5045940;28;20403;-73
2023/01/08 00:09:11;;;;;;;26.58;14.88;;;;;;;3.62;58.83;101847.91;5048549;28;20384;-74
2023/01/08 00:11:36;;;;;;;25.88;16.45;;;;;;;3.71;58.98;101848.22;5048126;28;20388;-73
2023/01/08 00:14:02;;;;;;;26.90;15.77;;;;;;;3.77;58.31;101843.44;5045134;28;20403;-73
2023/01/08 00:16:27;;;;;;;28.20;16.15;;;;;;;3.96;58.08;101852.75;5038000;28;20730;-74
2023/01/08 00:18:53;;;;;;;28.25;15.85;;;;;;;3.99;57.35;101847.31;5044202;28;20479;-74
2023/01/08 00:21:19;;;;;;;26.73;15.97;;;;;;;3.88;57.88;101849.81;5039143;28;20416;-72
2023/01/08 00:23:46;;;;;;;24.52;15.63;;;;;;;3.76;58.35;101856.66;5052427;28;20751;-73
2023/01/08 00:26:13;;;;;;;26.75;15.27;;;;;;;3.70;59.06;101860.50;5039531;28;20409;-73
2023/01/08 00:28:39;;;;;;;27.55;15.73;;;;;;;3.80;59.05;101861.63;5041338;28;20396;-72
2023/01/08 00:31:10;;;;;;;27.27;16.83;;;;;;;3.85;58.20;101858.69;5039083;28;20764;-73
2023/01/08 00:33:36;;;;;;;29.65;16.90;;;;;;;3.87;58.35;101863.84;5040340;28;20388;-73
2023/01/08 00:36:10;;;;;;;27.25;15.90;;;;;;;3.88;58.29;101868.16;5034322;28;20400;-73
2023/01/08 00:38:36;;;;;;;24.95;15.73;;;;;;;3.82;58.45;101867.59;5040703;28;20399;-73
2023/01/08 00:41:03;;;;;;;26.53;16.30;;;;;;;3.78;58.59;101854.78;5045606;28;20503;-74
2023/01/08 00:43:28;;;;;;;26.42;17.30;;;;;;;3.80;58.72;101868.66;5047597;28;20396;-73
2023/01/08 00:45:54;;;;;;;25.48;17.15;;;;;;;3.83;58.29;101869.31;5037840;28;20737;-74
2023/01/08 00:48:26;;;;;;;26.08;16.27;;;;;;;3.83;58.34;101869.31;5044000;28;20384;-74
2023/01/08 00:50:52;;;;;;;24.63;15.02;;;;;;;3.62;59.15;101875.91;5032507;28;20382;-74
2023/01/08 00:53:20;;;;;;;23.98;15.32;;;;;;;3.67;59.09;101876.44;5043560;28;20410;-74
2023/01/08 00:55:46;;;;;;;19.23;11.77;;;;;;;3.50;58.90;101866.19;5038669;28;20389;-73
2023/01/08 00:58:12;;;;;;;23.40;13.43;;;;;;;3.20;59.82;101870.56;5033245;28;20402;-73
2023/01/08 01:00:38;;;;;;;21.53;13.27;;;;;;;3.24;59.50;101868.59;5030786;28;20406;-74
2023/01/08 01:03:04;;;;;;;20.83;13.33;;;;;;;3.16;59.38;101883.97;5041210;28;20479;-73
2023/01/08 01:05:29;;;;;;;26.92;14.02;;;;;;;3.19;59.22;101884.63;5047372;28;20404;-74
2023/01/08 01:07:55;;;;;;;23.93;13.67;;;;;;;3.22;58.81;101871.34;5039663;28;20434;-73
2023/01/08 01:10:21;;;;;;;24.65;14.98;;;;;;;3.30;58.61;101878.72;5047903;28;20889;-74
2023/01/08 01:12:46;;;;;;;23.80;14.00;;;;;;;3.29;58.28;101884.91;5046735;28;20503;-73
2023/01/08 01:15:14;;;;;;;23.87;13.93;;;;;;;3.37;58.04;101884.44;5044716;28;20936;-73
2023/01/08 01:17:42;;;;;;;20.33;12.70;;;;;;;3.38;57.80;101888.72;5042924;28;20414;-73
2023/01/08 01:20:09;;;;;;;22.17;12.82;;;;;;;3.42;57.46;101877.13;5037291;28;20410;-75
2023/01/08 01:22:35;;;;;;;19.58;12.48;;;;;;;3.54;56.62;101878.97;5031784;28;20410;-73
2023/01/08 01:25:01;;;;;;;21.70;12.37;;;;;;;3.58;56.81;101882.25;5028786;28;20395;-73
2023/01/08 01:27:26;;;;;;;22.05;12.60;;;;;;;3.64;56.45;101879.28;5058320;28;20917;-74
2023/01/08 01:29:53;;;;;;;21.47;12.93;;;;;;;3.63;56.50;101885.44;5041235;28;20389;-74
2023/01/08 01:32:19;;;;;;;25.65;14.73;;;;;;;3.63;55.99;101885.44;5042397;28;20830;-73
2023/01/08 01:34:44;;;;;;;25.38;14.68;;;;;;;3.61;56.17;101887.31;5033721;28;20431;-73
2023/01/08 01:37:14;;;;;;;24.53;14.70;;;;;;;3.54;56.00;101886.00;5048068;28;20458;-74
2023/01/08 01:39:42;;;;;;;25.23;14.15;;;;;;;3.58;56.39;101883.13;5043117;28;20411;-74
2023/01/08 01:42:38;;;;;;;23.00;14.25;;;;;;;3.61;55.88;101875.03;5048599;28;21877;-75
2023/01/08 01:44:57;;;;;;;23.50;14.30;;;;;;;3.57;55.87;101870.94;5048372;28;20389;-73
2023/01/08 01:47:32;;;;;;;23.67;15.43;;;;;;;3.45;56.17;101875.16;5048697;28;20377;-74
2023/01/08 01:50:16;;;;;;;27.73;16.13;;;;;;;3.38;56.54;101881.69;5049622;28;20384;-74
2023/01/08 01:52:49;;;;;;;30.75;17.50;;;;;;;3.37;56.79;101882.66;5049060;28;20378;-73
2023/01/08 01:55:16;;;;;;;28.60;17.83;;;;;;;3.36;56.47;101880.13;5047573;28;20865;-73
2023/01/08 01:57:48;;;;;;;27.55;16.50;;;;;;;3.40;56.46;101879.84;5050425;28;20397;-74
2023/01/08 02:00:13;;;;;;;29.55;16.88;;;;;;;3.35;56.16;101875.81;5052066;28;20427;-74
2023/01/08 02:02:39;;;;;;;27.45;15.90;;;;;;;3.44;55.94;101880.50;5052399;28;20388;-74
2023/01/08 02:05:05;;;;;;;27.47;17.00;;;;;;;3.39;55.92;101879.94;5052144;28;20503;-74
2023/01/08 02:07:40;;;;;;;29.40;19.67;;;;;;;3.17;56.29;101872.53;5052299;28;20389;-74
2023/01/08 02:10:27;;;;;;;25.80;15.85;;;;;;;3.02;56.63;101866.44;5052120;28;21242;-74
2023/01/08 02:13:00;;;;;;;21.55;14.82;;;;;;;2.97;57.18;101878.97;5052084;28;20449;-74
2023/01/08 02:15:34;;;;;;;26.60;15.30;;;;;;;2.89;57.35;101873.38;5051751;28;20736;-74
2023/01/08 02:18:06;;;;;;;28.83;16.15;;;;;;;2.93;57.37;101869.63;5052030;28;20495;-74
2023/01/08 02:20:39;;;;;;;29.23;17.13;;;;;;;3.01;57.01;101870.84;5052311;28;20404;-74
2023/01/08 02:23:07;;;;;;;26.05;16.23;;;;;;;2.93;57.26;101859.97;5059912;28;20388;-74
2023/01/08 02:25:44;;;;;;;30.75;17.42;;;;;;;2.82;57.73;101859.78;5063411;28;20422;-72
2023/01/08 02:28:13;;;;;;;30.23;18.13;;;;;;;2.82;57.85;101860.63;5063175;28;20380;-74
2023/01/08 02:30:39;;;;;;;31.27;17.13;;;;;;;2.81;57.77;101866.81;5055690;28;20384;-74
2023/01/08 02:33:04;;;;;;;31.65;16.95;;;;;;;2.90;57.55;101868.03;5054538;28;20380;-73
2023/01/08 02:35:39;;;;;;;32.43;18.10;;;;;;;2.90;57.38;101864.56;5053516;28;20429;-74
2023/01/08 02:38:05;;;;;;;33.17;18.05;;;;;;;2.87;57.30;101863.81;5051457;28;20876;-73
2023/01/08 02:40:40;;;;;;;30.98;17.27;;;;;;;2.99;56.95;101858.78;5051676;28;20423;-74
2023/01/08 02:43:16;;;;;;;31.30;17.23;;;;;;;3.04;57.07;101872.44;5051377;28;20403;-74
2023/01/08 02:45:45;;;;;;;30.85;18.42;;;;;;;2.97;56.90;101874.59;5035571;28;20825;-73
2023/01/08 02:48:24;;;;;;;28.35;17.33;;;;;;;2.98;57.06;101871.03;5052452;28;20392;-74
2023/01/08 02:50:59;;;;;;;30.80;18.05;;;;;;;2.94;56.90;101866.91;5050640;28;20472;-74
2023/01/08 02:53:34;;;;;;;27.77;16.40;;;;;;;2.89;57.37;101865.50;5048492;28;20390;-74
2023/01/08 02:56:08;;;;;;;28.73;15.60;;;;;;;2.90;57.21;101865.44;5051333;28;20373;-74
2023/01/08 02:58:36;;;;;;;30.70;15.98;;;;;;;2.90;57.22;101867.19;5051358;28;20384;-73
2023/01/08 03:01:03;;;;;;;27.33;15.65;;;;;;;2.85;57.21;101854.38;5050666;28;20440;-73
2023/01/08 03:03:30;;;;;;;29.55;17.83;;;;;;;2.78;57.79;101858.28;5050799;28;20888;-73
2023/01/08 03:06:03;;;;;;;26.85;15.27;;;;;;;2.79;57.80;101863.44;5050959;28;20517;-73
2023/01/08 03:08:30;;;;;;;29.85;16.15;;;;;;;2.77;57.88;101859.22;5049800;28;20385;-73
2023/01/08 03:11:02;;;;;;;23.15;13.75;;;;;;;2.73;57.50;101861.19;5046438;28;20418;-73
2023/01/08 03:13:53;;;;;;;23.83;15.03;;;;;;;2.65;57.88;101864.25;5047814;28;20380;-72
2023/01/08 03:16:38;;;;;;;24.55;14.40;;;;;;;2.57;58.00;101869.09;5050529;28;20409;-73
2023/01/08 03:19:11;;;;;;;24.50;14.88;;;;;;;2.53;58.14;101870.19;5050546;28;20430;-73
2023/01/08 03:21:39;;;;;;;22.65;12.88;;;;;;;2.31;58.75;101865.38;5050722;28;20490;-74
2023/01/08 03:24:05;;;;;;;19.47;12.57;;;;;;;2.24;59.19;101877.13;5051081;28;20385;-74
2023/01/08 03:26:32;;;;;;;22.17;12.48;;;;;;;1.98;59.56;101870.72;5050848;28;20385;-73
2023/01/08 03:28:59;;;;;;;19.60;12.75;;;;;;;2.07;59.62;101878.03;5050824;28;20698;-73
2023/01/08 03:31:28;;;;;;;21.45;13.32;;;;;;;2.16;59.13;101872.31;5050696;28;20427;-73
2023/01/08 03:33:54;;;;;;;22.13;14.02;;;;;;;2.31;58.52;101878.44;5050487;28;20392;-73
2023/01/08 03:36:29;;;;;;;23.50;13.38;;;;;;;2.24;58.77;101880.56;5050890;28;20389;-75
2023/01/08 03:39:15;;;;;;;24.10;14.68;;;;;;;2.22;59.09;101884.22;5050200;28;20422;-74
2023/01/08 03:41:41;;;;;;;23.67;14.52;;;;;;;2.22;59.09;101887.66;5049241;28;20830;-74
2023/01/08 03:44:07;;;;;;;26.48;14.60;;;;;;;2.24;58.88;101888.41;5050419;28;20385;-73
2023/01/08 03:46:36;;;;;;;24.48;14.15;;;;;;;2.23;58.69;101872.81;5050410;28;20871;-73
2023/01/08 03:49:05;;;;;;;25.23;15.27;;;;;;;2.18;58.84;101880.94;5050610;28;20726;-73
2023/01/08 03:51:45;;;;;;;25.25;14.40;;;;;;;2.19;58.63;101889.59;5050189;28;20749;-74
2023/01/08 03:54:13;;;;;;;23.23;12.88;;;;;;;2.02;58.95;101891.41;5037740;28;20389;-73
2023/01/08 03:56:38;;;;;;;22.80;13.10;;;;;;;2.00;59.06;101885.41;5050127;28;20670;-74
2023/01/08 03:59:04;;;;;;;22.87;13.63;;;;;;;2.18;58.57;101885.28;5048880;28;20388;-73
2023/01/08 04:01:29;;;;;;;23.63;13.50;;;;;;;2.33;58.06;101871.34;5049735;28;20401;-73
2023/01/08 04:03:55;;;;;;;21.98;13.20;;;;;;;2.27;58.39;101879.56;5050066;28;20454;-74
2023/01/08 04:06:20;;;;;;;21.15;12.68;;;;;;;2.15;59.21;101885.50;5049971;28;20389;-75
2023/01/08 04:08:46;;;;;;;18.97;12.17;;;;;;;2.04;59.58;101883.47;5045098;28;20743;-74
2023/01/08 04:11:12;;;;;;;20.92;13.68;;;;;;;2.02;59.63;101888.78;5045515;28;20392;-75
2023/01/08 04:13:37;;;;;;;28.10;14.95;;;;;;;2.08;59.63;101891.03;5049642;28;20791;-74
2023/01/08 04:16:04;;;;;;;33.75;17.35;;;;;;;2.12;59.24;101899.56;5049391;28;20781;-73
2023/01/08 04:18:29;;;;;;;24.70;14.82;;;;;;;2.16;59.01;101898.47;5049378;28;20934;-74
2023/01/08 04:20:55;;;;;;;25.43;16.20;;;;;;;2.13;59.10;101889.97;5050314;28;20400;-74
2023/01/08 04:23:20;;;;;;;24.13;14.73;;;;;;;2.24;58.52;101888.41;5052824;28;20424;-74
2023/01/08 04:25:46;;;;;;;25.08;15.32;;;;;;;2.27;58.10;101895.25;5050434;28;20939;-73
2023/01/08 04:28:11;;;;;;;26.17;15.93;;;;;;;2.24;57.97;101895.44;5050384;28;20393;-74
2023/01/08 04:30:37;;;;;;;21.80;14.77;;;;;;;2.31;58.02;101895.94;5050379;28;20501;-74
2023/01/08 04:33:02;;;;;;;21.43;13.73;;;;;;;2.30;57.52;101884.59;5050328;28;20377;-74
2023/01/08 04:35:28;;;;;;;21.87;14.77;;;;;;;2.26;57.73;101885.72;5050039;28;20868;-74
2023/01/08 04:37:53;;;;;;;23.33;15.43;;;;;;;2.24;57.53;101885.78;5050509;28;20384;-74
2023/01/08 04:40:18;;;;;;;24.40;15.57;;;;;;;2.25;57.81;101895.34;5052064;28;20495;-73
2023/01/08 04:42:44;;;;;;;25.17;16.03;;;;;;;2.27;57.37;101895.25;5050435;28;20398;-73
2023/01/08 04:45:10;;;;;;;26.90;16.00;;;;;;;2.15;57.83;101895.94;5050160;28;20392;-73
2023/01/08 04:47:35;;;;;;;24.70;16.50;;;;;;;2.13;57.86;101896.03;5049922;28;20388;-74
2023/01/08 04:50:00;;;;;;;23.80;14.43;;;;;;;2.17;57.77;101888.84;5050079;28;20726;-73
2023/01/08 04:52:27;;;;;;;24.58;14.25;;;;;;;2.10;57.95;101897.03;5049959;28;20416;-73
2023/01/08 04:54:53;;;;;;;26.25;15.35;;;;;;;2.17;57.84;101892.31;5049968;28;20381;-73
2023/01/08 04:57:18;;;;;;;25.88;14.88;;;;;;;2.24;57.23;101892.81;5049382;28;20392;-72
2023/01/08 04:59:43;;;;;;;24.30;15.03;;;;;;;2.20;57.44;101897.38;5049472;28;20380;-74
2023/01/08 05:02:09;;;;;;;26.10;14.67;;;;;;;2.15;57.40;101891.56;5044628;28;20390;-74
2023/01/08 05:04:34;;;;;;;26.07;14.57;;;;;;;2.13;57.53;101900.44;5054658;28;20384;-74
2023/01/08 05:07:00;;;;;;;24.85;15.00;;;;;;;2.11;57.53;101903.13;5049816;28;20389;-74
2023/01/08 05:09:25;;;;;;;23.73;14.30;;;;;;;1.96;57.55;101906.56;5049901;28;20389;-74
2023/01/08 05:11:51;;;;;;;23.40;14.13;;;;;;;1.96;57.51;101898.72;5049094;28;20992;-74
2023/01/08 05:14:16;;;;;;;23.57;14.10;;;;;;;2.00;57.52;101908.94;5050258;28;20387;-75
2023/01/08 05:16:42;;;;;;;25.33;15.70;;;;;;;1.89;57.55;101906.94;5049549;28;20875;-74
2023/01/08 05:19:07;;;;;;;27.70;15.23;;;;;;;1.71;58.02;101908.78;5049985;28;20385;-74
2023/01/08 05:21:33;;;;;;;24.52;14.23;;;;;;;1.54;59.00;101916.66;5049285;28;20585;-74
2023/01/08 05:23:58;;;;;;;25.63;13.63;;;;;;;1.52;58.92;101926.34;5049440;28;20483;-74
2023/01/08 05:26:24;;;;;;;20.10;12.90;;;;;;;1.37;59.32;101911.47;5049464;28;20381;-74
2023/01/08 05:28:49;;;;;;;25.33;13.47;;;;;;;1.26;59.73;101925.09;5049927;28;20869;-72
2023/01/08 05:31:15;;;;;;;22.73;13.45;;;;;;;1.20;59.38;101913.22;5049568;28;20450;-73
2023/01/08 05:33:41;;;;;;;21.13;13.30;;;;;;;1.33;58.89;101916.03;5052820;28;20380;-74
2023/01/08 05:36:08;;;;;;;20.67;12.90;;;;;;;1.34;58.87;101913.34;5053861;28;20380;-73
2023/01/08 05:38:33;;;;;;;21.25;12.70;;;;;;;1.25;59.03;101908.59;5053222;28;20384;-73
2023/01/08 05:40:59;;;;;;;23.43;13.00;;;;;;;1.30;59.36;101910.97;5054359;28;20872;-73
2023/01/08 05:43:25;;;;;;;23.05;13.75;;;;;;;1.42;59.19;101918.16;5053731;28;20393;-75
2023/01/08 05:45:50;;;;;;;23.33;13.68;;;;;;;1.42;59.01;101912.09;5052267;28;20392;-73
2023/01/08 05:48:16;;;;;;;26.50;14.07;;;;;;;1.62;58.65;101924.09;5052657;28;20928;-74
2023/01/08 05:50:41;;;;;;;21.07;14.00;;;;;;;1.60;58.72;101923.31;5052136;28;20940;-74
2023/01/08 05:53:08;;;;;;;48.87;22.10;;;;;;;1.62;58.73;101914.50;5052623;28;20396;-74
2023/01/08 05:55:34;;;;;;;36.72;19.02;;;;;;;1.66;58.05;101909.94;5053005;28;20856;-73
2023/01/08 05:58:03;;;;;;;28.35;17.83;;;;;;;1.86;57.64;101917.53;5037238;28;20388;-73
2023/01/08 06:00:30;;;;;;;53.50;25.10;;;;;;;1.91;57.27;101923.38;5052914;28;20407;-74
2023/01/08 06:02:55;;;;;;;56.85;26.48;;;;;;;1.88;57.44;101923.53;5052910;28;20864;-73
2023/01/08 06:05:21;;;;;;;41.97;22.58;;;;;;;1.97;57.19;101916.13;5053282;28;20381;-73
2023/01/08 06:07:46;;;;;;;40.77;21.83;;;;;;;1.96;57.21;101925.72;5052175;28;21153;-73
2023/01/08 06:10:12;;;;;;;35.90;20.97;;;;;;;1.93;57.15;101925.91;5052484;28;20709;-74
2023/01/08 06:12:37;;;;;;;30.83;19.57;;;;;;;1.85;57.34;101923.69;5053212;28;20399;-74
2023/01/08 06:15:04;;;;;;;34.97;20.65;;;;;;;1.82;57.19;101923.00;5054660;28;20789;-73
2023/01/08 06:17:30;;;;;;;34.20;18.67;;;;;;;1.77;57.62;101927.66;5052797;28;20853;-74
2023/01/08 06:19:56;;;;;;;31.20;19.00;;;;;;;1.77;57.38;101932.91;5052160;28;20442;-74
2023/01/08 06:22:21;;;;;;;32.07;18.87;;;;;;;1.76;57.34;101936.44;5052137;28;20476;-74
2023/01/08 06:24:46;;;;;;;33.10;19.37;;;;;;;1.75;57.93;101942.56;5052834;28;20384;-74
2023/01/08 06:27:12;;;;;;;33.33;21.27;;;;;;;1.62;57.89;101934.53;5052150;28;20890;-73
2023/01/08 06:29:37;;;;;;;37.35;23.58;;;;;;;1.59;58.03;101940.78;5051744;28;20497;-73
2023/01/08 06:32:03;;;;;;;36.58;22.25;;;;;;;1.47;58.54;101934.44;5053501;28;20396;-73
2023/01/08 06:34:28;;;;;;;35.97;22.13;;;;;;;1.61;58.60;101949.38;5054376;28;20377;-73
2023/01/08 06:36:54;;;;;;;38.83;21.93;;;;;;;1.73;58.05;101947.91;5052720;28;20387;-74
2023/01/08 06:39:19;;;;;;;35.70;22.73;;;;;;;1.79;57.50;101944.94;5048257;28;20381;-74
2023/01/08 06:41:45;;;;;;;30.67;20.60;;;;;;;1.84;57.41;101949.94;5032350;28;20513;-74
2023/01/08 06:44:10;;;;;;;32.00;20.85;;;;;;;1.88;57.50;101948.84;5032515;28;20408;-73
2023/01/08 06:46:39;;;;;;;31.92;20.80;;;;;;;1.91;57.54;101951.31;5032396;28;20386;-73
2023/01/08 06:49:05;;;;;;;31.05;19.67;;;;;;;1.92;57.74;101956.41;5048072;28;20383;-73
2023/01/08 06:51:31;;;;;;;30.10;20.33;;;;;;;1.94;57.78;101955.50;5046046;28;20379;-74
2023/01/08 06:53:56;;;;;;;30.80;20.50;;;;;;;1.95;57.79;101960.66;5051714;28;20411;-74
2023/01/08 06:56:22;;;;;;;28.13;20.27;;;;;;;2.09;57.56;101968.59;5052022;28;20384;-73
2023/01/08 06:58:47;;;;;;;44.72;30.58;;;;;;;2.04;57.67;101972.41;5051872;28;20384;-73
2023/01/08 07:01:14;;;;;;;46.37;25.73;;;;;;;2.07;57.83;101966.97;5051517;28;20760;-74
2023/01/08 07:03:40;;;;;;;54.75;26.25;;;;;;;2.13;58.08;101966.66;5052121;28;20408;-74
2023/01/08 07:06:06;;;;;;;40.20;24.20;;;;;;;2.31;57.80;101970.03;5051912;28;21122;-74
2023/01/08 07:08:31;;;;;;;40.53;25.33;;;;;;;2.36;57.45;101965.38;5052773;28;20372;-73
2023/01/08 07:11:02;;;;;;;41.47;25.63;;;;;;;2.51;57.58;101973.31;5052438;28;20447;-73
2023/01/08 07:13:28;;;;;;;51.13;27.75;;;;;;;2.48;57.55;101969.94;5052340;28;20364;-74
2023/01/08 07:15:54;;;;;;;53.97;28.45;;;;;;;2.58;57.54;101977.28;5050946;28;20408;-75
2023/01/08 07:18:20;;;;;;;73.35;32.22;;;;;;;2.56;57.78;101979.97;5052113;28;20736;-74
2023/01/08 07:20:47;;;;;;;86.67;38.67;;;;;;;2.58;57.80;101966.78;5051469;28;20408;-73
2023/01/08 07:23:13;;;;;;;57.95;29.83;;;;;;;2.76;57.57;101980.63;5050171;28;20487;-73
2023/01/08 07:25:39;;;;;;;54.30;29.55;;;;;;;2.76;57.57;101970.97;5051267;28;20472;-73
2023/01/08 07:28:05;;;;;;;48.53;28.63;;;;;;;2.86;57.62;101976.50;5049303;28;20388;-73
2023/01/08 07:30:30;;;;;;;47.45;28.92;;;;;;;2.99;57.61;101974.88;5050471;28;20877;-73
2023/01/08 07:32:59;;;;;;;48.67;31.15;;;;;;;3.05;57.57;101978.91;5051549;28;20970;-74
2023/01/08 07:35:25;;;;;;;70.93;37.30;;;;;;;3.03;57.64;101976.38;5051629;28;21221;-73
2023/01/08 07:37:51;;;;;;;56.25;34.03;;;;;;;3.11;57.55;101978.53;5050911;28;20782;-73
2023/01/08 07:40:16;;;;;;;46.03;30.60;;;;;;;3.16;57.68;101983.53;5051578;28;20400;-73
2023/01/08 07:42:42;;;;;;;50.87;36.07;;;;;;;3.18;57.53;101986.91;5049952;28;20381;-73
2023/01/08 07:45:08;;;;;;;50.03;36.40;;;;;;;3.27;57.56;101985.50;5047974;28;20380;-73
2023/01/08 07:47:33;;;;;;;55.40;39.60;;;;;;;3.32;57.44;101992.16;5049450;28;20441;-73
2023/01/08 07:49:58;;;;;;;56.35;40.63;;;;;;;3.39;57.50;101993.50;5047692;28;20416;-76
2023/01/08 07:52:24;;;;;;;61.05;39.92;;;;;;;3.46;57.08;101991.34;5047730;28;20456;-73
2023/01/08 07:54:49;;;;;;;66.73;42.13;;;;;;;3.59;57.06;102000.16;5048913;28;20458;-73
2023/01/08 07:57:15;;;;;;;63.63;41.47;;;;;;;3.67;56.94;101983.09;5047698;28;20408;-73
2023/01/08 07:59:40;;;;;;;73.63;43.60;;;;;;;3.80;56.81;101984.06;5047598;28;20479;-73
2023/01/08 08:02:06;;;;;;;76.63;44.90;;;;;;;3.88;56.66;101986.19;5050639;28;20729;-73
2023/01/08 08:04:32;;;;;;;73.10;44.47;;;;;;;3.88;56.54;101983.59;5050837;28;20381;-74
2023/01/08 08:06:58;;;;;;;76.75;47.53;;;;;;;3.92;56.87;101993.78;5053380;28;20407;-73
2023/01/08 08:09:23;;;;;;;84.60;51.47;;;;;;;4.08;56.63;101980.53;5045552;28;20389;-73
2023/01/08 08:11:48;;;;;;;78.78;51.35;;;;;;;4.25;56.30;101989.13;5049446;28;20389;-73
2023/01/08 08:14:14;;;;;;;78.30;50.33;;;;;;;4.25;55.88;101991.75;5049581;28;20373;-73
2023/01/08 08:16:39;;;;;;;80.07;50.90;;;;;;;4.19;56.42;101988.56;5048043;28;20419;-75
2023/01/08 08:19:05;;;;;;;81.83;51.67;;;;;;;4.33;56.16;101995.59;5049558;28;20384;-73
2023/01/08 08:21:30;;;;;;;76.30;48.65;;;;;;;4.42;56.21;102001.19;5049805;28;20484;-74
2023/01/08 08:23:56;;;;;;;70.53;45.92;;;;;;;4.53;55.75;101994.31;5050112;28;20396;-74
2023/01/08 08:26:22;;;;;;;68.05;44.47;;;;;;;4.56;55.67;101988.03;5051066;28;20391;-76
2023/01/08 08:28:48;;;;;;;66.22;43.17;;;;;;;4.64;56.05;101998.84;5050356;28;20399;-74
2023/01/08 08:31:14;;;;;;;62.50;41.38;;;;;;;4.68;56.08;101995.13;5049537;28;20446;-73
2023/01/08 08:33:39;;;;;;;54.40;37.17;;;;;;;4.68;56.04;101989.88;5039729;28;20388;-73
2023/01/08 08:36:06;;;;;;;54.05;37.08;;;;;;;4.80;56.12;101990.81;5044552;28;20742;-73
2023/01/08 08:38:31;;;;;;;55.90;37.33;;;;;;;4.83;55.69;101977.50;5035784;28;20386;-75
2023/01/08 08:40:57;;;;;;;56.93;37.30;;;;;;;4.95;55.73;101981.06;5050182;28;20407;-74
2023/01/08 08:43:22;;;;;;;52.83;36.40;;;;;;;5.03;55.50;101986.69;5048209;28;20471;-73
2023/01/08 08:45:48;;;;;;;56.23;36.60;;;;;;;5.16;55.50;101981.44;5048798;28;20458;-74
2023/01/08 08:48:15;;;;;;;55.67;38.72;;;;;;;5.25;55.43;101972.94;5054788;28;20400;-74
2023/01/08 08:50:41;;;;;;;59.80;40.27;;;;;;;5.33;55.20;101975.88;5046357;28;20420;-74
2023/01/08 08:53:08;;;;;;;64.53;42.25;;;;;;;5.28;55.36;101975.34;5049055;28;20420;-74
2023/01/08 08:55:33;;;;;;;63.47;39.95;;;;;;;5.32;55.61;101970.72;5049303;28;20403;-74
2023/01/08 08:58:09;;;;;;;60.88;40.08;;;;;;;5.44;54.98;101975.16;5048265;28;20377;-75
2023/01/08 09:00:36;;;;;;;60.78;40.53;;;;;;;5.61;54.69;101975.78;5039003;28;20406;-73
2023/01/08 09:03:01;;;;;;;56.33;38.00;;;;;;;5.70;54.65;101975.13;5039946;28;20381;-73
2023/01/08 09:05:27;;;;;;;59.13;38.10;;;;;;;5.84;54.99;101982.91;5043536;28;20393;-73
2023/01/08 09:07:53;;;;;;;52.13;36.53;;;;;;;5.96;54.64;101980.38;5045061;28;20379;-74
2023/01/08 09:10:19;;;;;;;52.63;35.60;;;;;;;6.04;54.58;101975.44;5044756;28;20381;-73
2023/01/08 09:12:45;;;;;;;51.65;33.58;;;;;;;6.09;54.89;101979.41;5049167;28;20906;-73
2023/01/08 09:15:10;;;;;;;51.17;33.10;;;;;;;6.16;54.54;101971.91;5039576;28;20460;-74
2023/01/08 09:17:36;;;;;;;54.03;34.80;;;;;;;6.13;54.91;101967.69;5049130;28;20392;-75
2023/01/08 09:20:03;;;;;;;51.23;34.13;;;;;;;6.17;55.12;101968.31;5040109;28;20433;-75
2023/01/08 09:22:29;;;;;;;50.65;34.42;;;;;;;6.25;54.55;101973.88;5042570;28;20402;-77
2023/01/08 09:24:54;;;;;;;50.15;33.03;;;;;;;6.34;54.72;101972.38;5042440;28;20383;-75
2023/01/08 09:27:20;;;;;;;51.40;34.30;;;;;;;6.37;54.63;101961.59;5030837;28;20405;-74
2023/01/08 09:29:45;;;;;;;48.47;33.10;;;;;;;6.42;54.45;101969.19;5043867;28;20884;-75
2023/01/08 09:32:11;;;;;;;51.03;33.73;;;;;;;6.52;54.86;101964.94;5036170;28;20386;-75
2023/01/08 09:34:37;;;;;;;43.28;28.20;;;;;;;6.49;54.57;101965.97;5033230;28;20394;-74
2023/01/08 09:37:04;;;;;;;38.40;26.35;;;;;;;6.55;54.67;101954.16;5041341;28;20384;-74
2023/01/08 09:39:29;;;;;;;45.50;30.23;;;;;;;6.57;54.43;101961.94;5046092;28;20447;-74
2023/01/08 09:41:57;;;;;;;37.80;27.88;;;;;;;6.54;54.83;101954.28;5045174;28;20791;-74
2023/01/08 09:44:26;;;;;;;41.92;28.88;;;;;;;6.62;54.94;101950.09;5048248;28;20395;-76
2023/01/08 09:46:54;;;;;;;40.70;28.25;;;;;;;6.68;54.64;101948.81;5054259;28;20384;-75
2023/01/08 09:49:27;;;;;;;33.83;24.30;;;;;;;6.67;54.85;101941.88;5037390;28;20467;-77
2023/01/08 09:51:53;;;;;;;33.58;23.27;;;;;;;6.75;54.84;101939.50;5033707;28;20382;-74
2023/01/08 09:54:23;;;;;;;62.70;39.83;;;;;;;6.76;54.63;101924.53;5045857;28;20388;-76
2023/01/08 09:56:49;;;;;;;31.40;21.83;;;;;;;6.64;54.67;101932.38;5043197;28;20405;-74
2023/01/08 09:59:17;;;;;;;28.93;20.47;;;;;;;6.74;54.59;101924.66;5044488;28;20389;-75
2023/01/08 10:01:44;;;;;;;30.95;21.30;;;;;;;6.70;54.64;101915.31;5048854;28;20400;-74
2023/01/08 10:04:25;;;;;;;32.97;21.02;;;;;;;6.82;54.72;101917.00;5050721;28;20392;-75
2023/01/08 10:06:53;;;;;;;30.02;20.60;;;;;;;6.87;54.84;101917.50;5044699;28;20479;-74
2023/01/08 10:09:30;;;;;;;33.30;22.35;;;;;;;6.92;54.78;101917.16;5048973;28;20396;-75
2023/01/08 10:12:02;;;;;;;29.85;21.05;;;;;;;6.91;54.83;101910.19;5048603;28;20384;-74
2023/01/08 10:14:31;;;;;;;34.25;23.08;;;;;;;7.01;54.84;101913.81;5044342;28;20392;-75
2023/01/08 10:17:24;;;;;;;29.63;21.17;;;;;;;7.16;54.64;101903.06;5038462;28;20421;-74
2023/01/08 10:19:50;;;;;;;31.45;21.40;;;;;;;7.29;54.43;101909.03;5027659;28;20747;-74
2023/01/08 10:22:18;;;;;;;27.97;20.50;;;;;;;7.45;54.23;101904.28;5037685;28;20507;-73
2023/01/08 10:24:44;;;;;;;30.35;20.35;;;;;;;7.58;53.99;101909.44;5037938;28;20397;-74
2023/01/08 10:27:16;;;;;;;29.35;21.13;;;;;;;7.59;53.87;101897.88;5033731;28;20387;-75
2023/01/08 10:29:42;;;;;;;39.83;26.80;;;;;;;7.58;53.82;101890.94;5040247;28;20961;-75
2023/01/08 10:32:18;;;;;;;36.13;25.67;;;;;;;7.58;53.87;101892.72;5049488;28;20451;-74
2023/01/08 10:34:50;;;;;;;39.53;27.85;;;;;;;7.59;53.87;101886.50;5041255;28;20442;-74
2023/01/08 10:37:23;;;;;;;35.15;26.65;;;;;;;7.45;53.93;101885.81;5043914;28;20385;-74
2023/01/08 10:39:49;;;;;;;37.63;25.48;;;;;;;7.52;54.05;101882.69;5064531;28;20409;-73
2023/01/08 10:42:17;;;;;;;33.97;24.15;;;;;;;7.46;54.01;101869.00;5040845;28;20401;-73
2023/01/08 10:44:57;;;;;;;34.40;24.20;;;;;;;7.56;53.95;101870.91;5042556;28;20394;-75
2023/01/08 10:47:24;;;;;;;32.75;23.75;;;;;;;7.67;53.97;101873.56;5043274;28;20454;-74
2023/01/08 10:49:50;;;;;;;30.70;23.95;;;;;;;7.70;53.59;101867.19;5040403;28;20438;-75
2023/01/08 10:52:35;;;;;;;34.70;24.10;;;;;;;7.78;53.61;101872.69;5037049;28;20384;-74
2023/01/08 10:55:20;;;;;;;33.25;22.98;;;;;;;7.76;53.62;101864.03;5042300;28;20406;-74
2023/01/08 10:58:02;;;;;;;30.05;22.55;;;;;;;7.78;53.35;101848.94;5036998;28;20829;-75
2023/01/08 11:00:30;;;;;;;29.92;21.67;;;;;;;7.76;53.86;101850.84;5042602;28;20410;-73
2023/01/08 11:02:59;;;;;;;31.02;21.90;;;;;;;7.81;53.82;101851.31;5037637;28;20818;-75
2023/01/08 11:05:36;;;;;;;27.63;21.48;;;;;;;7.95;53.36;101851.03;5036682;28;20875;-74
2023/01/08 11:08:05;;;;;;;29.63;20.83;;;;;;;8.15;53.25;101848.56;5035546;28;20387;-73
2023/01/08 11:10:32;;;;;;;33.20;21.27;;;;;;;8.26;53.05;101848.50;5048970;28;20450;-73
2023/01/08 11:13:00;;;;;;;27.63;20.38;;;;;;;8.19;52.72;101842.91;5042365;28;20713;-77
2023/01/08 11:15:44;;;;;;;29.83;22.02;;;;;;;8.08;53.26;101837.66;5049672;28;20439;-74
2023/01/08 11:18:19;;;;;;;30.07;21.40;;;;;;;8.11;53.31;101839.22;5047796;28;20401;-74
2023/01/08 11:20:46;;;;;;;30.05;21.25;;;;;;;8.16;53.19;101819.41;5050255;28;20404;-74